Time;durP1;ratioP1;P1;durP2;ratioP2;P2;SDS_P1;SDS_P2;PMS_P1;PMS_P2;Temp;Humidity;BMP_temperature;BMP_pressure;BME280_temperature;BME280_humidity;BME280_pressure;Samples;Min_cycle;Max_cycle;Signal;HPM_P1;HPM_P2
2022/03/17 00:00:10;;;;;;;34.53;23.73;;;13.60;99.90;;;;;;4955402;29;20547;-66
2022/03/17 00:02:37;;;;;;;32.03;22.87;;;13.60;99.90;;;;;;4953899;28;20201;-66
2022/03/17 00:05:04;;;;;;;34.47;23.60;;;13.60;99.90;;;;;;4955029;28;20169;-66
2022/03/17 00:07:30;;;;;;;32.03;23.37;;;13.60;99.90;;;;;;4955374;28;20180;-67
2022/03/17 00:09:57;;;;;;;31.67;23.57;;;13.60;99.90;;;;;;4955156;28;20291;-68
2022/03/17 00:12:22;;;;;;;31.57;23.90;;;13.50;99.90;;;;;;4954891;28;20179;-66
2022/03/17 00:14:48;;;;;;;31.57;24.03;;;13.50;99.90;;;;;;4955278;28;20574;-67
2022/03/17 00:17:14;;;;;;;38.40;24.30;;;13.50;99.90;;;;;;4954985;28;20705;-66
2022/03/17 00:19:39;;;;;;;35.07;24.30;;;13.50;99.90;;;;;;4955010;28;20179;-66
2022/03/17 00:22:09;;;;;;;38.03;24.77;;;13.50;99.90;;;;;;4955083;28;20589;-67
2022/03/17 00:24:36;;;;;;;36.63;25.57;;;13.50;99.90;;;;;;4955034;28;20264;-67
2022/03/17 00:27:06;;;;;;;34.30;24.73;;;13.50;99.90;;;;;;4954689;28;20599;-65
2022/03/17 00:29:33;;;;;;;33.03;25.67;;;13.50;99.90;;;;;;4954508;28;20710;-67
2022/03/17 00:31:59;;;;;;;35.83;25.83;;;13.50;99.90;;;;;;4957963;28;20272;-67
2022/03/17 00:34:25;;;;;;;35.77;25.77;;;13.50;99.90;;;;;;4959004;28;20283;-66
2022/03/17 00:36:50;;;;;;;41.70;29.13;;;13.50;99.90;;;;;;4958731;28;20641;-67
2022/03/17 00:39:16;;;;;;;37.97;25.87;;;13.50;99.90;;;;;;4941650;29;20175;-67
2022/03/17 00:41:43;;;;;;;35.27;25.60;;;13.50;99.90;;;;;;4958450;28;20251;-67
2022/03/17 00:44:09;;;;;;;38.63;26.30;;;13.60;99.90;;;;;;4958798;28;20201;-66
2022/03/17 00:46:36;;;;;;;34.73;26.23;;;13.60;99.90;;;;;;4958655;28;20172;-66
2022/03/17 00:49:02;;;;;;;37.73;25.80;;;13.60;99.90;;;;;;4958630;28;20172;-67
2022/03/17 00:51:28;;;;;;;35.93;25.67;;;13.50;99.90;;;;;;4958618;28;20208;-67
2022/03/17 00:53:53;;;;;;;36.57;26.57;;;13.50;99.90;;;;;;4958547;28;20224;-66
2022/03/17 00:56:19;;;;;;;40.93;26.33;;;13.30;99.90;;;;;;4958127;28;20188;-66
2022/03/17 00:58:48;;;;;;;35.90;25.97;;;13.30;99.90;;;;;;4958618;28;20185;-67
2022/03/17 01:01:16;;;;;;;40.40;26.13;;;13.30;99.90;;;;;;4958560;28;20239;-66
2022/03/17 01:03:43;;;;;;;39.33;26.90;;;13.30;99.90;;;;;;4958290;28;20172;-67
2022/03/17 01:06:10;;;;;;;39.87;26.73;;;13.30;99.90;;;;;;4958358;28;20325;-67
2022/03/17 01:08:36;;;;;;;37.30;25.70;;;13.20;99.90;;;;;;4958329;28;20708;-67
2022/03/17 01:11:02;;;;;;;41.60;27.20;;;13.20;99.90;;;;;;4957976;28;20256;-67
2022/03/17 01:13:28;;;;;;;35.53;25.90;;;13.20;99.90;;;;;;4958267;28;20169;-67
2022/03/17 01:15:54;;;;;;;36.60;25.67;;;13.10;99.90;;;;;;4958081;28;20180;-67
2022/03/17 01:18:21;;;;;;;34.67;25.53;;;13.10;99.90;;;;;;4958273;28;20176;-66
2022/03/17 01:20:47;;;;;;;33.43;26.20;;;13.10;99.90;;;;;;4958114;28;20189;-67
2022/03/17 01:23:13;;;;;;;38.60;29.50;;;13.10;99.90;;;;;;4958201;28;20169;-67
2022/03/17 01:25:39;;;;;;;35.17;24.33;;;13.10;99.90;;;;;;4957761;28;20191;-67
2022/03/17 01:28:04;;;;;;;30.57;22.23;;;13.10;99.90;;;;;;4958133;28;20223;-67
2022/03/17 01:30:30;;;;;;;27.53;19.57;;;13.10;99.90;;;;;;4957481;28;20244;-66
2022/03/17 01:32:56;;;;;;;24.23;16.73;;;12.80;99.90;;;;;;4957869;28;20283;-66
2022/03/17 01:35:21;;;;;;;20.80;16.03;;;12.80;99.90;;;;;;4957806;28;20700;-67
2022/03/17 01:37:47;;;;;;;20.67;16.63;;;12.60;99.90;;;;;;4957767;28;20187;-67
2022/03/17 01:40:13;;;;;;;21.87;17.60;;;12.60;99.90;;;;;;4957337;28;20188;-67
2022/03/17 01:42:39;;;;;;;26.37;17.93;;;12.50;99.90;;;;;;4957505;28;20263;-67
2022/03/17 01:45:06;;;;;;;21.50;18.03;;;12.10;99.90;;;;;;4957689;28;20692;-67
2022/03/17 01:47:33;;;;;;;24.40;18.13;;;11.90;99.90;;;;;;4956346;29;20251;-68
2022/03/17 01:50:13;;;;;;;23.57;19.30;;;11.70;99.90;;;;;;4957407;28;20200;-67
2022/03/17 01:52:40;;;;;;;29.13;21.70;;;11.60;99.90;;;;;;4957729;28;20183;-66
2022/03/17 01:55:08;;;;;;;25.97;20.70;;;11.40;99.90;;;;;;4956967;28;20200;-66
2022/03/17 01:57:34;;;;;;;25.77;20.87;;;11.40;99.90;;;;;;4957424;28;20248;-67
2022/03/17 02:00:01;;;;;;;26.17;20.60;;;11.30;99.90;;;;;;4956094;29;20658;-67
2022/03/17 02:02:26;;;;;;;33.53;22.10;;;11.20;99.90;;;;;;4957519;28;20188;-66
2022/03/17 02:04:53;;;;;;;32.37;22.23;;;11.00;99.90;;;;;;4957229;28;20251;-67
2022/03/17 02:07:19;;;;;;;33.70;22.27;;;10.80;99.90;;;;;;4957191;28;20172;-67
2022/03/17 02:09:48;;;;;;;31.90;23.43;;;10.80;99.90;;;;;;4955534;29;20231;-67
2022/03/17 02:15:01;;;;;;;33.00;23.10;;;10.60;99.90;;;;;;4957265;29;20216;-67
2022/03/17 02:17:30;;;;;;;37.87;24.00;;;10.70;99.90;;;;;;4956992;28;20176;-67
2022/03/17 02:19:58;;;;;;;36.70;25.23;;;10.70;99.90;;;;;;4956818;28;20640;-67
2022/03/17 02:22:25;;;;;;;36.57;24.47;;;10.70;99.90;;;;;;4956762;28;20652;-67
2022/03/17 02:27:46;;;;;;;36.23;24.80;;;10.70;99.90;;;;;;4957074;29;20728;-67
2022/03/17 02:30:17;;;;;;;35.90;23.37;;;10.60;99.90;;;;;;4956558;28;20223;-67
2022/03/17 02:32:44;;;;;;;35.60;23.30;;;10.60;99.90;;;;;;4957012;28;20176;-67
2022/03/17 02:35:12;;;;;;;36.00;24.00;;;10.60;99.90;;;;;;4956534;28;20637;-67
2022/03/17 02:37:38;;;;;;;35.43;23.10;;;10.60;99.90;;;;;;4956738;28;20180;-67
2022/03/17 02:40:07;;;;;;;32.47;22.23;;;10.70;99.90;;;;;;4956899;28;20234;-67
2022/03/17 02:42:33;;;;;;;33.23;22.77;;;10.70;99.90;;;;;;4956611;28;20208;-66
2022/03/17 02:45:01;;;;;;;33.30;23.00;;;10.80;99.90;;;;;;4956620;28;20173;-66
2022/03/17 02:47:27;;;;;;;35.07;22.83;;;10.80;99.90;;;;;;4956575;28;20193;-66
2022/03/17 02:49:55;;;;;;;30.23;21.70;;;10.70;99.90;;;;;;4956327;28;20280;-67
2022/03/17 02:52:25;;;;;;;29.00;22.03;;;10.80;99.90;;;;;;4956287;28;20213;-68
2022/03/17 02:54:51;;;;;;;29.13;20.27;;;10.70;99.90;;;;;;4955844;28;20169;-66
2022/03/17 02:57:18;;;;;;;29.33;20.23;;;10.70;99.90;;;;;;4956463;28;20180;-67
2022/03/17 02:59:44;;;;;;;25.40;20.10;;;10.70;99.90;;;;;;4956414;28;20180;-66
2022/03/17 03:02:09;;;;;;;29.10;21.10;;;10.60;99.90;;;;;;4956337;28;20207;-66
2022/03/17 03:04:35;;;;;;;28.23;20.87;;;10.60;99.90;;;;;;4956384;28;20259;-66
2022/03/17 03:07:04;;;;;;;27.70;20.80;;;10.60;99.90;;;;;;4956040;28;20181;-67
2022/03/17 03:09:30;;;;;;;30.13;21.10;;;10.70;99.90;;;;;;4956089;28;20172;-67
2022/03/17 03:11:57;;;;;;;26.57;21.40;;;10.70;99.90;;;;;;4956203;28;20228;-66
2022/03/17 03:14:23;;;;;;;28.27;21.23;;;10.80;99.90;;;;;;4956253;28;20184;-68
2022/03/17 03:16:49;;;;;;;28.47;20.63;;;10.80;99.90;;;;;;4955875;28;20184;-67
2022/03/17 03:19:15;;;;;;;27.30;20.77;;;10.80;99.90;;;;;;4955938;28;20177;-67
2022/03/17 03:21:43;;;;;;;26.60;19.33;;;10.70;99.90;;;;;;4955743;28;20181;-67
2022/03/17 03:24:08;;;;;;;28.30;19.17;;;10.70;99.90;;;;;;4956127;28;20271;-67
2022/03/17 03:26:34;;;;;;;23.20;18.43;;;10.80;99.90;;;;;;4955766;28;20215;-66
2022/03/17 03:28:59;;;;;;;21.97;17.77;;;10.60;99.90;;;;;;4955556;28;20255;-66
2022/03/17 03:31:25;;;;;;;24.07;17.30;;;10.60;99.90;;;;;;4955587;28;20542;-66
2022/03/17 03:33:51;;;;;;;58.63;20.77;;;10.60;99.90;;;;;;4954572;29;20180;-65
2022/03/17 03:39:01;;;;;;;22.67;14.60;;;10.40;99.90;;;;;;4955808;29;20180;-66
2022/03/17 03:41:26;;;;;;;20.00;14.20;;;10.40;99.90;;;;;;4955529;28;20176;-67
2022/03/17 03:43:52;;;;;;;21.00;14.10;;;10.30;99.90;;;;;;4955225;28;20176;-66
2022/03/17 03:46:18;;;;;;;19.97;14.77;;;10.30;99.90;;;;;;4955384;28;20185;-66
2022/03/17 03:48:43;;;;;;;15.37;13.53;;;10.20;99.90;;;;;;4955475;28;20184;-66
2022/03/17 03:51:09;;;;;;;16.50;13.97;;;10.20;99.90;;;;;;4955201;28;20246;-66
2022/03/17 03:56:18;;;;;;;18.93;13.63;;;10.30;99.90;;;;;;4955574;29;20247;-67
2022/03/17 03:58:44;;;;;;;16.97;14.27;;;10.30;99.90;;;;;;4955336;28;20636;-67
2022/03/17 04:01:10;;;;;;;16.07;14.27;;;10.20;99.90;;;;;;4955239;28;20247;-67
2022/03/17 04:03:35;;;;;;;17.63;13.77;;;10.10;99.90;;;;;;4955275;28;20172;-67
2022/03/17 04:06:01;;;;;;;15.10;13.33;;;10.10;99.90;;;;;;4954068;28;20697;-67
2022/03/17 04:08:26;;;;;;;14.67;13.17;;;10.00;99.90;;;;;;4955381;28;20671;-67
2022/03/17 04:10:52;;;;;;;16.27;13.93;;;10.00;99.90;;;;;;4955020;28;20220;-67
2022/03/17 04:13:18;;;;;;;16.27;14.40;;;10.00;99.90;;;;;;4954997;28;20173;-66
2022/03/17 04:15:43;;;;;;;17.67;14.17;;;10.10;99.90;;;;;;4955134;28;20255;-66
2022/03/17 04:18:09;;;;;;;15.23;13.63;;;10.00;99.90;;;;;;4954981;28;20632;-67
2022/03/17 04:20:35;;;;;;;16.27;14.10;;;9.90;99.90;;;;;;4954574;28;20176;-66
2022/03/17 04:23:00;;;;;;;16.93;13.47;;;9.90;99.90;;;;;;4954872;28;20169;-68
2022/03/17 04:25:26;;;;;;;19.57;14.33;;;9.90;99.90;;;;;;4954891;28;20211;-67
2022/03/17 04:27:51;;;;;;;18.07;14.20;;;9.90;99.90;;;;;;4955063;28;20261;-66
2022/03/17 04:30:17;;;;;;;18.13;13.57;;;9.90;99.90;;;;;;4954364;28;20228;-66
2022/03/17 04:32:44;;;;;;;15.17;13.53;;;10.00;99.90;;;;;;4955044;28;20334;-67
2022/03/17 04:35:10;;;;;;;15.40;12.77;;;10.00;99.90;;;;;;4954454;28;20682;-67
2022/03/17 04:37:35;;;;;;;15.43;13.03;;;9.90;99.90;;;;;;4954902;28;20172;-67
2022/03/17 04:40:02;;;;;;;19.20;13.70;;;9.90;99.90;;;;;;4954694;28;20717;-66
2022/03/17 04:42:28;;;;;;;17.97;12.97;;;9.90;99.90;;;;;;4954393;28;20168;-68
2022/03/17 04:44:55;;;;;;;17.53;13.33;;;9.90;99.90;;;;;;4954871;28;20236;-67
2022/03/17 04:47:21;;;;;;;14.33;12.60;;;10.00;99.90;;;;;;4954159;28;20380;-66
2022/03/17 04:49:47;;;;;;;15.23;11.93;;;10.00;99.90;;;;;;4954698;28;20208;-67
2022/03/17 04:54:57;;;;;;;13.23;11.60;;;9.90;99.90;;;;;;4954665;29;20204;-66
2022/03/17 04:57:24;;;;;;;14.93;11.93;;;9.90;99.90;;;;;;4954393;28;20648;-67
2022/03/17 04:59:50;;;;;;;13.83;11.47;;;9.80;99.90;;;;;;4954533;28;20165;-67
2022/03/17 05:02:16;;;;;;;18.27;11.63;;;9.80;99.90;;;;;;4953924;28;20263;-68
2022/03/17 05:04:41;;;;;;;13.23;10.93;;;9.80;99.90;;;;;;4954420;28;20637;-67
2022/03/17 05:07:07;;;;;;;12.50;10.93;;;9.80;99.90;;;;;;4954302;28;20173;-66
2022/03/17 05:09:33;;;;;;;12.30;11.00;;;9.80;99.90;;;;;;4954027;28;20643;-67
2022/03/17 05:11:58;;;;;;;13.63;11.17;;;9.90;99.90;;;;;;4954323;28;20652;-67
2022/03/17 05:14:24;;;;;;;12.63;9.60;;;9.90;99.90;;;;;;4954520;28;20641;-67
2022/03/17 05:16:50;;;;;;;12.67;9.70;;;9.80;99.90;;;;;;4954818;28;20200;-67
2022/03/17 05:19:15;;;;;;;13.40;10.13;;;9.70;99.90;;;;;;4956462;29;20628;-67
2022/03/17 05:21:41;;;;;;;11.40;9.60;;;9.80;99.90;;;;;;4957734;28;20176;-67
2022/03/17 05:24:06;;;;;;;15.93;9.97;;;9.80;99.90;;;;;;4957662;29;20272;-66
2022/03/17 05:26:33;;;;;;;12.63;10.07;;;9.80;99.90;;;;;;4957547;28;20255;-67
2022/03/17 05:28:58;;;;;;;13.50;9.53;;;9.80;99.90;;;;;;4957387;28;20383;-67
2022/03/17 05:31:24;;;;;;;12.23;9.07;;;9.80;99.90;;;;;;4957261;29;20271;-66
2022/03/17 05:33:49;;;;;;;12.57;9.70;;;9.80;99.90;;;;;;4957072;29;20719;-66
2022/03/17 05:36:15;;;;;;;11.83;9.27;;;9.70;99.90;;;;;;4957320;29;20180;-67
2022/03/17 05:38:40;;;;;;;12.00;9.60;;;9.70;99.90;;;;;;4956981;29;20568;-68
2022/03/17 05:41:06;;;;;;;14.57;9.03;;;9.70;99.90;;;;;;4956970;29;20173;-67
2022/03/17 05:43:32;;;;;;;11.93;9.17;;;9.70;99.90;;;;;;4956162;29;20543;-67
2022/03/17 05:45:57;;;;;;;12.23;9.47;;;9.80;99.90;;;;;;4956441;29;20169;-67
2022/03/17 05:48:23;;;;;;;14.63;9.03;;;9.80;99.90;;;;;;4956970;28;20185;-67
2022/03/17 05:50:50;;;;;;;14.23;8.30;;;9.80;99.90;;;;;;4956796;29;20216;-67
2022/03/17 05:53:16;;;;;;;12.50;9.23;;;9.80;99.90;;;;;;4956251;28;20202;-67
2022/03/17 05:55:41;;;;;;;10.23;8.47;;;9.80;99.90;;;;;;4957557;29;20172;-67
2022/03/17 05:58:07;;;;;;;12.37;9.23;;;9.70;99.90;;;;;;4957076;29;20661;-67
2022/03/17 06:00:35;;;;;;;14.53;9.37;;;9.60;99.90;;;;;;4956428;29;20267;-67
2022/03/17 06:03:00;;;;;;;15.23;9.10;;;9.70;99.90;;;;;;4956450;28;20197;-67
2022/03/17 06:05:28;;;;;;;16.30;9.93;;;9.70;99.90;;;;;;4956245;28;20177;-67
2022/03/17 06:07:58;;;;;;;10.63;9.07;;;9.70;99.90;;;;;;4956483;28;20736;-67
2022/03/17 06:10:24;;;;;;;15.23;9.97;;;9.80;99.90;;;;;;4955979;28;20208;-67
2022/03/17 06:12:54;;;;;;;12.10;9.13;;;9.70;99.90;;;;;;4956270;29;20179;-66
2022/03/17 06:15:21;;;;;;;11.30;9.50;;;9.80;99.90;;;;;;4955873;28;20496;-67
2022/03/17 06:17:52;;;;;;;13.60;9.30;;;9.80;99.90;;;;;;4956727;28;20273;-67
2022/03/17 06:20:20;;;;;;;11.83;9.03;;;9.70;99.90;;;;;;4956050;29;20181;-68
2022/03/17 06:22:48;;;;;;;14.70;9.53;;;9.80;99.90;;;;;;4955825;28;20172;-67
2022/03/17 06:25:16;;;;;;;11.80;8.83;;;9.80;99.90;;;;;;4955306;28;20190;-67
2022/03/17 06:27:43;;;;;;;13.40;8.83;;;9.70;99.90;;;;;;4955852;28;20319;-68
2022/03/17 06:30:12;;;;;;;15.23;9.77;;;9.70;99.90;;;;;;4954634;28;20244;-67
2022/03/17 06:32:39;;;;;;;16.43;9.00;;;9.60;99.90;;;;;;4955588;28;20208;-67
2022/03/17 06:35:10;;;;;;;13.50;9.57;;;9.70;99.90;;;;;;4954801;28;20172;-67
2022/03/17 06:37:37;;;;;;;12.77;9.60;;;9.70;99.90;;;;;;4955288;28;20183;-67
2022/03/17 06:40:04;;;;;;;12.27;9.53;;;9.80;99.90;;;;;;4955011;28;20269;-68
2022/03/17 06:42:30;;;;;;;13.83;9.73;;;9.90;99.90;;;;;;4955809;28;20231;-68
2022/03/17 06:44:56;;;;;;;13.73;9.70;;;9.80;99.90;;;;;;4954912;29;20172;-68
2022/03/17 06:47:21;;;;;;;14.90;9.83;;;9.90;99.90;;;;;;4954610;29;20173;-68
2022/03/17 06:49:47;;;;;;;11.30;9.37;;;9.90;99.90;;;;;;4953816;29;20681;-68
2022/03/17 06:52:13;;;;;;;10.43;9.30;;;9.90;99.90;;;;;;4956236;29;20169;-67
2022/03/17 06:54:38;;;;;;;13.00;8.77;;;9.80;99.90;;;;;;4954986;29;20223;-67
2022/03/17 06:57:04;;;;;;;14.00;9.60;;;9.80;99.90;;;;;;4954972;29;20180;-67
2022/03/17 06:59:30;;;;;;;11.13;8.47;;;9.80;99.90;;;;;;4954780;28;20679;-67
2022/03/17 07:01:55;;;;;;;12.43;8.77;;;9.80;99.90;;;;;;4954834;28;20201;-67
2022/03/17 07:04:21;;;;;;;10.47;7.40;;;9.80;99.90;;;;;;4955403;29;20185;-68
2022/03/17 07:06:47;;;;;;;14.67;7.60;;;9.70;99.90;;;;;;4954836;28;20177;-67
2022/03/17 07:09:13;;;;;;;11.90;7.67;;;9.70;99.90;;;;;;4954409;29;20540;-68
2022/03/17 07:11:39;;;;;;;15.50;8.20;;;9.70;99.90;;;;;;4954501;28;20695;-67
2022/03/17 07:14:04;;;;;;;8.80;7.90;;;9.70;99.90;;;;;;4954723;29;20263;-68
2022/03/17 07:16:30;;;;;;;8.53;7.40;;;9.80;99.90;;;;;;4954182;29;20621;-66
2022/03/17 07:18:56;;;;;;;8.03;7.23;;;9.70;99.90;;;;;;4954295;28;20204;-67
2022/03/17 07:21:21;;;;;;;11.30;7.93;;;9.70;99.90;;;;;;4955008;29;20180;-67
2022/03/17 07:23:47;;;;;;;11.27;7.77;;;9.80;99.90;;;;;;4954444;28;20180;-69
2022/03/17 07:26:12;;;;;;;12.40;7.60;;;9.90;99.90;;;;;;4954148;29;20172;-67
2022/03/17 07:28:38;;;;;;;8.63;7.73;;;9.90;99.90;;;;;;4952563;29;20252;-67
2022/03/17 07:31:04;;;;;;;8.03;6.77;;;9.90;99.90;;;;;;4953349;29;20227;-68
2022/03/17 07:33:32;;;;;;;10.90;7.70;;;9.90;99.90;;;;;;4954016;29;20641;-69
2022/03/17 07:35:57;;;;;;;8.43;6.80;;;10.00;99.90;;;;;;4953435;28;20551;-67
2022/03/17 07:38:23;;;;;;;8.03;6.30;;;9.90;99.90;;;;;;4954467;28;20184;-67
2022/03/17 07:40:49;;;;;;;6.83;6.13;;;9.90;99.90;;;;;;4954500;28;20612;-67
2022/03/17 07:43:14;;;;;;;7.53;6.40;;;9.90;99.90;;;;;;4953928;29;20271;-68
2022/03/17 07:45:40;;;;;;;11.37;6.60;;;9.90;99.90;;;;;;4953544;29;20283;-66
2022/03/17 07:48:06;;;;;;;11.97;6.70;;;9.90;99.90;;;;;;4954134;28;20504;-68
2022/03/17 07:50:33;;;;;;;9.33;6.50;;;9.90;99.90;;;;;;4953987;28;20215;-68
2022/03/17 07:52:59;;;;;;;11.37;6.40;;;10.00;99.90;;;;;;4953789;28;20223;-67
2022/03/17 07:55:25;;;;;;;27.70;14.70;;;10.10;99.90;;;;;;4954292;28;20184;-68
2022/03/17 07:57:51;;;;;;;29.30;17.83;;;10.20;99.90;;;;;;4953171;28;20275;-67
2022/03/17 08:00:17;;;;;;;22.00;12.40;;;10.20;99.90;;;;;;4944087;28;20221;-67
2022/03/17 08:02:43;;;;;;;12.47;9.00;;;10.20;99.90;;;;;;4951043;28;20291;-67
2022/03/17 08:05:15;;;;;;;14.70;6.40;;;10.20;99.90;;;;;;4945919;28;20203;-68
2022/03/17 08:07:41;;;;;;;12.30;5.90;;;10.20;99.90;;;;;;4941078;28;20316;-67
2022/03/17 08:10:08;;;;;;;11.10;6.00;;;10.30;99.90;;;;;;4948797;28;20217;-67
2022/03/17 08:12:34;;;;;;;11.97;5.53;;;10.30;99.90;;;;;;4948979;29;20176;-68
2022/03/17 08:15:01;;;;;;;8.37;5.60;;;10.20;99.90;;;;;;4941582;29;20199;-67
2022/03/17 08:17:27;;;;;;;10.63;5.90;;;10.20;99.90;;;;;;4950606;28;20202;-69
2022/03/17 08:19:53;;;;;;;9.93;5.53;;;10.20;99.90;;;;;;4947551;28;20192;-67
2022/03/17 08:22:19;;;;;;;11.13;7.70;;;10.20;99.90;;;;;;4952823;28;20180;-67
2022/03/17 08:24:45;;;;;;;12.20;7.00;;;10.30;99.90;;;;;;4947738;28;20316;-68
2022/03/17 08:27:11;;;;;;;13.17;6.90;;;10.20;99.90;;;;;;4946595;28;20356;-67
2022/03/17 08:29:38;;;;;;;11.87;6.30;;;10.20;99.90;;;;;;4949091;28;20328;-66
2022/03/17 08:32:05;;;;;;;9.20;6.53;;;10.20;99.90;;;;;;4946991;28;20181;-68
2022/03/17 08:34:32;;;;;;;12.50;6.43;;;10.20;99.90;;;;;;4942799;29;20188;-65
2022/03/17 08:36:59;;;;;;;12.27;6.40;;;10.20;99.90;;;;;;4947389;29;20223;-66
2022/03/17 08:39:25;;;;;;;8.67;6.47;;;10.20;99.90;;;;;;4941378;29;20254;-66
2022/03/17 08:41:52;;;;;;;8.17;6.03;;;10.10;99.90;;;;;;4944031;28;20205;-67
2022/03/17 08:44:18;;;;;;;6.70;6.10;;;10.10;99.90;;;;;;4952280;28;20235;-65
2022/03/17 08:49:28;;;;;;;8.73;6.80;;;10.20;99.90;;;;;;4944088;28;20687;-66
2022/03/17 08:51:56;;;;;;;13.30;6.43;;;10.30;99.90;;;;;;4946269;28;20220;-66
2022/03/17 08:54:25;;;;;;;6.67;5.90;;;10.40;99.90;;;;;;4945795;28;20216;-67
2022/03/17 08:56:59;;;;;;;8.47;6.20;;;10.40;99.90;;;;;;4952344;28;20185;-65
2022/03/17 08:59:25;;;;;;;9.90;5.70;;;10.40;99.90;;;;;;4945077;29;20208;-66
2022/03/17 09:01:51;;;;;;;10.30;6.40;;;10.50;99.90;;;;;;4953176;28;20201;-66
2022/03/17 09:04:20;;;;;;;8.50;5.30;;;10.60;99.90;;;;;;4948324;28;20206;-67
2022/03/17 09:06:46;;;;;;;8.10;4.60;;;10.70;99.90;;;;;;4951009;28;20181;-66
2022/03/17 09:09:12;;;;;;;7.73;4.73;;;10.80;99.90;;;;;;4952136;28;20236;-68
2022/03/17 09:11:38;;;;;;;7.57;5.17;;;10.80;99.90;;;;;;4955463;28;20570;-67
2022/03/17 09:14:04;;;;;;;4.70;3.80;;;10.90;99.90;;;;;;4957056;28;20173;-66
2022/03/17 09:16:30;;;;;;;6.80;4.50;;;11.00;99.90;;;;;;4956541;28;20172;-66
2022/03/17 09:18:57;;;;;;;6.03;4.37;;;11.10;99.90;;;;;;4954268;28;20542;-66
2022/03/17 09:21:22;;;;;;;5.97;4.23;;;11.10;99.90;;;;;;4943818;28;20196;-66
2022/03/17 09:23:48;;;;;;;5.47;4.60;;;11.10;99.90;;;;;;4952656;28;20195;-66
2022/03/17 09:26:14;;;;;;;9.57;4.53;;;11.20;99.90;;;;;;4954662;28;20191;-65
2022/03/17 09:28:40;;;;;;;7.53;4.60;;;11.10;99.90;;;;;;4954982;28;20249;-66
2022/03/17 09:31:06;;;;;;;8.43;5.27;;;11.10;99.90;;;;;;4948476;28;20296;-66
2022/03/17 09:33:32;;;;;;;10.03;4.67;;;11.10;99.90;;;;;;4947894;28;20196;-67
2022/03/17 09:35:58;;;;;;;5.03;4.53;;;11.10;99.90;;;;;;4947743;29;20617;-66
2022/03/17 09:38:24;;;;;;;10.17;5.20;;;11.20;99.90;;;;;;4951589;28;20263;-66
2022/03/17 09:40:50;;;;;;;7.47;4.80;;;11.30;99.90;;;;;;4955631;28;20181;-65
2022/03/17 09:43:18;;;;;;;5.10;4.60;;;11.50;99.90;;;;;;4955784;28;20173;-66
2022/03/17 09:45:45;;;;;;;6.53;4.37;;;11.50;99.90;;;;;;4954580;28;20269;-66
2022/03/17 09:48:13;;;;;;;5.90;4.40;;;11.60;99.90;;;;;;4950491;28;20184;-67
2022/03/17 09:50:40;;;;;;;8.20;4.70;;;11.50;99.90;;;;;;4951337;28;20209;-65
2022/03/17 09:53:07;;;;;;;6.80;5.00;;;11.40;99.90;;;;;;4952530;29;20179;-67
2022/03/17 09:55:35;;;;;;;8.13;4.97;;;11.30;99.90;;;;;;4955974;28;20195;-67
2022/03/17 09:58:02;;;;;;;5.57;4.93;;;11.20;99.90;;;;;;4953393;28;20191;-65
2022/03/17 10:00:47;;;;;;;10.63;5.57;;;11.20;99.90;;;;;;4955629;28;20176;-67
2022/03/17 10:03:14;;;;;;;6.57;5.03;;;11.20;99.90;;;;;;4943745;28;20181;-67
2022/03/17 10:05:39;;;;;;;6.00;5.10;;;11.30;99.90;;;;;;4949769;28;20189;-66
2022/03/17 10:08:05;;;;;;;8.17;5.50;;;11.30;99.90;;;;;;4953306;28;20244;-66
2022/03/17 10:10:38;;;;;;;5.67;5.17;;;11.20;99.90;;;;;;4950136;28;20247;-66
2022/03/17 10:13:14;;;;;;;6.77;5.30;;;11.20;99.90;;;;;;4948023;28;20181;-66
2022/03/17 10:15:41;;;;;;;6.10;5.27;;;11.20;99.90;;;;;;4952834;29;20192;-66
2022/03/17 10:18:23;;;;;;;10.87;6.43;;;11.20;99.90;;;;;;4955183;28;20207;-65
2022/03/17 10:21:05;;;;;;;8.70;6.17;;;11.20;99.90;;;;;;4954646;28;20275;-66
2022/03/17 10:23:31;;;;;;;9.97;6.73;;;11.30;99.90;;;;;;4955844;28;20200;-65
2022/03/17 10:25:57;;;;;;;8.43;5.63;;;11.40;99.90;;;;;;4955553;28;20181;-66
2022/03/17 10:28:26;;;;;;;10.17;6.23;;;11.60;99.90;;;;;;4942051;28;20459;-67
2022/03/17 10:31:03;;;;;;;8.73;6.10;;;11.80;99.80;;;;;;4960816;28;20576;-67
2022/03/17 10:33:29;;;;;;;8.07;5.40;;;11.90;99.40;;;;;;4947964;28;20513;-66
2022/03/17 10:36:11;;;;;;;8.53;5.53;;;11.90;99.10;;;;;;4948486;28;20236;-67
2022/03/17 10:38:42;;;;;;;5.30;4.80;;;12.00;99.00;;;;;;4950910;29;20179;-65
2022/03/17 10:41:11;;;;;;;10.47;5.03;;;12.10;98.90;;;;;;4947108;28;20169;-65
2022/03/17 10:43:42;;;;;;;5.80;4.53;;;12.10;98.50;;;;;;4951343;28;20648;-66
2022/03/17 10:46:21;;;;;;;9.17;5.27;;;12.40;97.80;;;;;;4944844;28;20187;-67
2022/03/17 10:49:05;;;;;;;8.03;4.40;;;12.70;97.60;;;;;;4955001;28;20168;-63
2022/03/17 10:51:44;;;;;;;5.73;4.50;;;12.80;96.50;;;;;;4953583;28;20212;-65
2022/03/17 10:54:11;;;;;;;5.90;4.10;;;12.80;96.40;;;;;;4955017;28;20177;-65
2022/03/17 10:56:38;;;;;;;8.70;4.23;;;12.90;96.20;;;;;;4939922;28;20263;-65
2022/03/17 10:59:08;;;;;;;7.40;4.40;;;13.20;96.10;;;;;;4953469;29;20183;-64
2022/03/17 11:01:39;;;;;;;9.03;4.37;;;13.20;95.40;;;;;;4954321;28;20203;-63
2022/03/17 11:04:05;;;;;;;8.23;4.63;;;13.20;95.90;;;;;;4952261;28;20426;-65
2022/03/17 11:06:32;;;;;;;5.10;4.37;;;13.00;95.70;;;;;;4951038;29;20173;-65
2022/03/17 11:09:01;;;;;;;6.23;5.20;;;13.20;95.80;;;;;;4954993;28;20515;-64
2022/03/17 11:11:29;;;;;;;9.50;4.23;;;13.30;95.60;;;;;;4954194;28;20616;-66
2022/03/17 11:13:56;;;;;;;7.43;4.40;;;13.30;95.30;;;;;;4953901;28;20181;-65
2022/03/17 11:16:29;;;;;;;6.67;4.20;;;13.40;95.20;;;;;;4954551;28;20670;-65
2022/03/17 11:18:56;;;;;;;4.80;4.40;;;13.60;94.60;;;;;;4953121;28;20173;-66
2022/03/17 11:21:28;;;;;;;4.33;3.53;;;13.80;93.90;;;;;;4954611;28;20651;-64
2022/03/17 11:24:05;;;;;;;9.30;3.90;;;13.80;93.30;;;;;;4954662;28;20219;-65
2022/03/17 11:26:39;;;;;;;6.50;3.40;;;14.00;93.40;;;;;;4955038;28;20172;-64
2022/03/17 11:29:14;;;;;;;6.27;5.40;;;14.10;92.90;;;;;;4954311;28;20632;-64
2022/03/17 11:32:05;;;;;;;9.23;4.13;;;14.20;93.00;;;;;;4952706;29;20216;-64
2022/03/17 11:34:39;;;;;;;7.30;4.30;;;14.30;92.50;;;;;;4954675;28;20207;-65
2022/03/17 11:37:40;;;;;;;5.33;4.73;;;14.70;91.80;;;;;;4949303;28;20230;-66
2022/03/17 11:40:11;;;;;;;4.37;3.60;;;14.60;91.70;;;;;;4950469;29;20276;-65
2022/03/17 11:43:08;;;;;;;6.10;4.13;;;14.60;91.10;;;;;;4950466;29;20255;-66
2022/03/17 11:45:37;;;;;;;4.07;3.60;;;14.40;91.50;;;;;;4881700;29;20201;-66
2022/03/17 11:48:08;;;;;;;3.80;3.50;;;14.40;90.90;;;;;;4894433;29;20205;-65
2022/03/17 11:50:34;;;;;;;6.07;4.00;;;14.40;90.60;;;;;;4895316;29;20667;-65
2022/03/17 11:53:14;;;;;;;9.60;4.80;;;14.40;90.70;;;;;;4894959;29;20184;-65
2022/03/17 11:55:43;;;;;;;5.43;4.70;;;14.40;90.90;;;;;;4894813;29;20198;-65
2022/03/17 11:58:29;;;;;;;6.20;4.40;;;14.50;91.00;;;;;;4894895;29;20183;-65
2022/03/17 12:01:30;;;;;;;8.90;4.53;;;14.70;90.20;;;;;;4895053;29;20205;-65
2022/03/17 12:04:06;;;;;;;9.13;5.00;;;14.70;90.10;;;;;;4894555;29;20210;-65
2022/03/17 12:06:39;;;;;;;7.50;4.80;;;14.40;90.40;;;;;;4894237;29;20174;-65
2022/03/17 12:09:06;;;;;;;9.33;5.07;;;14.20;90.90;;;;;;4894897;29;20189;-65
2022/03/17 12:11:43;;;;;;;10.47;4.87;;;14.30;91.00;;;;;;4892950;29;20258;-66
2022/03/17 12:14:16;;;;;;;6.40;4.90;;;14.40;90.20;;;;;;4893940;29;20273;-67
2022/03/17 12:16:47;;;;;;;5.83;5.07;;;14.70;90.00;;;;;;4885014;29;20207;-66
2022/03/17 12:19:48;;;;;;;6.07;4.67;;;14.60;90.10;;;;;;4868509;29;20526;-66
2022/03/17 12:22:32;;;;;;;7.37;5.47;;;14.80;88.20;;;;;;4941961;29;20199;-65
2022/03/17 12:25:08;;;;;;;6.40;4.30;;;14.60;88.30;;;;;;4946758;28;20193;-66
2022/03/17 12:27:36;;;;;;;5.97;4.30;;;14.40;86.40;;;;;;4938426;28;20572;-66
2022/03/17 12:30:06;;;;;;;6.63;4.33;;;14.40;86.70;;;;;;4948674;28;20220;-66
2022/03/17 12:32:40;;;;;;;4.87;4.37;;;14.40;87.30;;;;;;4944398;28;20295;-66
2022/03/17 12:35:08;;;;;;;9.73;4.37;;;14.60;86.60;;;;;;4949060;28;20251;-66
2022/03/17 12:37:34;;;;;;;9.63;4.07;;;14.50;87.20;;;;;;4948511;28;20180;-66
2022/03/17 12:40:06;;;;;;;4.30;3.97;;;14.60;85.80;;;;;;4949229;28;20200;-66
2022/03/17 12:42:40;;;;;;;5.40;3.73;;;14.60;86.00;;;;;;4935929;29;20189;-65
2022/03/17 12:45:13;;;;;;;6.87;4.20;;;14.70;84.90;;;;;;4931798;28;20652;-66
2022/03/17 12:47:41;;;;;;;5.87;4.00;;;14.60;85.00;;;;;;4944973;28;20268;-66
2022/03/17 12:50:12;;;;;;;7.70;4.33;;;14.60;85.00;;;;;;4946012;28;20303;-67
2022/03/17 12:52:40;;;;;;;5.20;4.33;;;14.70;85.30;;;;;;4949876;29;20229;-65
2022/03/17 12:55:09;;;;;;;7.30;4.30;;;14.50;86.00;;;;;;4948036;28;20204;-66
2022/03/17 12:57:37;;;;;;;5.10;4.53;;;14.60;86.80;;;;;;4945837;28;20243;-67